sensor_id;sensor_type;location;lat;lon;timestamp;temperature;humidity
6018;DHT22;3037;51.068;13.780;2024-02-28T00:02:08;6.40;99.90
6018;DHT22;3037;51.068;13.780;2024-02-28T00:04:33;6.50;99.90
6018;DHT22;3037;51.068;13.780;2024-02-28T00:06:59;6.60;99.90
6018;DHT22;3037;51.068;13.780;2024-02-28T00:09:24;6.60;99.90
6018;DHT22;3037;51.068;13.780;2024-02-28T00:11:50;6.30;99.90
6018;DHT22;3037;51.068;13.780;2024-02-28T00:14:15;6.50;99.90
6018;DHT22;3037;51.068;13.780;2024-02-28T00:16:45;6.40;99.90
6018;DHT22;3037;51.068;13.780;2024-02-28T00:19:11;6.50;99.90
6018;DHT22;3037;51.068;13.780;2024-02-28T00:21:38;6.40;99.90
6018;DHT22;3037;51.068;13.780;2024-02-28T00:24:03;6.30;99.90
6018;DHT22;3037;51.068;13.780;2024-02-28T00:26:29;6.50;99.90
6018;DHT22;3037;51.068;13.780;2024-02-28T00:28:55;6.60;99.90
6018;DHT22;3037;51.068;13.780;2024-02-28T00:31:20;6.60;99.90
6018;DHT22;3037;51.068;13.780;2024-02-28T00:33:47;6.50;99.90
6018;DHT22;3037;51.068;13.780;2024-02-28T00:36:12;6.50;99.90
6018;DHT22;3037;51.068;13.780;2024-02-28T00:38:38;6.40;99.90
6018;DHT22;3037;51.068;13.780;2024-02-28T00:41:04;6.40;99.90
6018;DHT22;3037;51.068;13.780;2024-02-28T00:43:29;6.60;99.90
6018;DHT22;3037;51.068;13.780;2024-02-28T00:45:55;6.50;99.90
6018;DHT22;3037;51.068;13.780;2024-02-28T00:48:21;6.50;99.90
6018;DHT22;3037;51.068;13.780;2024-02-28T00:50:47;6.40;99.90
6018;DHT22;3037;51.068;13.780;2024-02-28T00:53:12;6.50;99.90
6018;DHT22;3037;51.068;13.780;2024-02-28T00:55:38;6.40;99.90
6018;DHT22;3037;51.068;13.780;2024-02-28T00:58:03;6.60;99.90
6018;DHT22;3037;51.068;13.780;2024-02-28T01:00:29;6.70;99.90
6018;DHT22;3037;51.068;13.780;2024-02-28T01:02:54;6.50;99.90
6018;DHT22;3037;51.068;13.780;2024-02-28T01:05:21;6.60;99.90
6018;DHT22;3037;51.068;13.780;2024-02-28T01:07:46;6.60;99.90
6018;DHT22;3037;51.068;13.780;2024-02-28T01:10:12;6.50;99.90
6018;DHT22;3037;51.068;13.780;2024-02-28T01:12:37;6.60;99.90
6018;DHT22;3037;51.068;13.780;2024-02-28T01:15:03;6.60;99.90
6018;DHT22;3037;51.068;13.780;2024-02-28T01:17:29;6.60;99.90
6018;DHT22;3037;51.068;13.780;2024-02-28T01:19:54;6.40;99.90
6018;DHT22;3037;51.068;13.780;2024-02-28T01:22:20;6.60;99.90
6018;DHT22;3037;51.068;13.780;2024-02-28T01:24:45;6.50;99.90
6018;DHT22;3037;51.068;13.780;2024-02-28T01:27:11;6.40;99.90
6018;DHT22;3037;51.068;13.780;2024-02-28T01:29:36;6.50;99.90
6018;DHT22;3037;51.068;13.780;2024-02-28T01:32:01;6.50;99.90
6018;DHT22;3037;51.068;13.780;2024-02-28T01:34:28;6.50;99.90
6018;DHT22;3037;51.068;13.780;2024-02-28T01:36:53;6.50;99.90
6018;DHT22;3037;51.068;13.780;2024-02-28T01:39:19;6.50;99.90
6018;DHT22;3037;51.068;13.780;2024-02-28T01:41:54;6.50;99.90
6018;DHT22;3037;51.068;13.780;2024-02-28T01:44:20;6.70;99.90
6018;DHT22;3037;51.068;13.780;2024-02-28T01:46:46;6.70;99.90
6018;DHT22;3037;51.068;13.780;2024-02-28T01:49:12;6.70;99.90
6018;DHT22;3037;51.068;13.780;2024-02-28T01:51:38;6.70;99.90
6018;DHT22;3037;51.068;13.780;2024-02-28T01:54:04;6.70;99.90
6018;DHT22;3037;51.068;13.780;2024-02-28T01:56:30;6.50;99.90
6018;DHT22;3037;51.068;13.780;2024-02-28T01:58:56;6.40;99.90
6018;DHT22;3037;51.068;13.780;2024-02-28T02:01:22;6.50;99.90
6018;DHT22;3037;51.068;13.780;2024-02-28T02:03:48;6.60;99.90
6018;DHT22;3037;51.068;13.780;2024-02-28T02:06:14;6.70;99.90
6018;DHT22;3037;51.068;13.780;2024-02-28T02:08:40;6.60;99.90
6018;DHT22;3037;51.068;13.780;2024-02-28T02:11:06;6.60;99.90
6018;DHT22;3037;51.068;13.780;2024-02-28T02:13:32;6.60;99.90
6018;DHT22;3037;51.068;13.780;2024-02-28T02:15:57;6.60;99.90
6018;DHT22;3037;51.068;13.780;2024-02-28T02:18:23;6.60;99.90
6018;DHT22;3037;51.068;13.780;2024-02-28T02:20:50;6.60;99.90
6018;DHT22;3037;51.068;13.780;2024-02-28T02:23:19;6.60;99.90
6018;DHT22;3037;51.068;13.780;2024-02-28T02:25:46;6.50;99.90
6018;DHT22;3037;51.068;13.780;2024-02-28T02:28:11;6.60;99.90
6018;DHT22;3037;51.068;13.780;2024-02-28T02:30:38;6.70;99.90
6018;DHT22;3037;51.068;13.780;2024-02-28T02:33:04;6.50;99.90
6018;DHT22;3037;51.068;13.780;2024-02-28T02:35:29;6.60;99.90
6018;DHT22;3037;51.068;13.780;2024-02-28T02:37:55;6.70;99.90
6018;DHT22;3037;51.068;13.780;2024-02-28T02:40:20;6.80;99.90
6018;DHT22;3037;51.068;13.780;2024-02-28T02:42:46;6.70;99.90
6018;DHT22;3037;51.068;13.780;2024-02-28T02:45:11;6.50;99.90
6018;DHT22;3037;51.068;13.780;2024-02-28T02:47:37;6.50;99.90
6018;DHT22;3037;51.068;13.780;2024-02-28T02:50:02;6.50;99.90
6018;DHT22;3037;51.068;13.780;2024-02-28T02:52:28;6.70;99.90
6018;DHT22;3037;51.068;13.780;2024-02-28T02:54:54;6.60;99.90
6018;DHT22;3037;51.068;13.780;2024-02-28T02:57:20;6.60;99.90
6018;DHT22;3037;51.068;13.780;2024-02-28T02:59:46;6.60;99.90
6018;DHT22;3037;51.068;13.780;2024-02-28T03:02:11;6.60;99.90
6018;DHT22;3037;51.068;13.780;2024-02-28T03:04:37;6.50;99.90
6018;DHT22;3037;51.068;13.780;2024-02-28T03:07:02;6.50;99.90
6018;DHT22;3037;51.068;13.780;2024-02-28T03:09:28;6.50;99.90
6018;DHT22;3037;51.068;13.780;2024-02-28T03:11:53;6.40;99.90
6018;DHT22;3037;51.068;13.780;2024-02-28T03:14:19;6.40;99.90
6018;DHT22;3037;51.068;13.780;2024-02-28T03:16:47;6.20;99.90
6018;DHT22;3037;51.068;13.780;2024-02-28T03:19:14;6.20;99.90
6018;DHT22;3037;51.068;13.780;2024-02-28T03:21:40;6.20;99.90
6018;DHT22;3037;51.068;13.780;2024-02-28T03:24:06;6.30;99.90
6018;DHT22;3037;51.068;13.780;2024-02-28T03:26:32;6.30;99.90
6018;DHT22;3037;51.068;13.780;2024-02-28T03:28:58;6.20;99.90
6018;DHT22;3037;51.068;13.780;2024-02-28T03:31:24;6.30;99.90
6018;DHT22;3037;51.068;13.780;2024-02-28T03:33:49;6.00;99.90
6018;DHT22;3037;51.068;13.780;2024-02-28T03:36:15;6.10;99.90
6018;DHT22;3037;51.068;13.780;2024-02-28T03:38:41;6.10;99.90
6018;DHT22;3037;51.068;13.780;2024-02-28T03:41:06;6.20;99.90
6018;DHT22;3037;51.068;13.780;2024-02-28T03:43:32;6.30;99.90
6018;DHT22;3037;51.068;13.780;2024-02-28T03:45:57;6.20;99.90
6018;DHT22;3037;51.068;13.780;2024-02-28T03:48:23;6.20;99.90
6018;DHT22;3037;51.068;13.780;2024-02-28T03:50:48;6.20;99.90
6018;DHT22;3037;51.068;13.780;2024-02-28T03:53:14;6.30;99.90
6018;DHT22;3037;51.068;13.780;2024-02-28T03:55:39;6.30;99.90
6018;DHT22;3037;51.068;13.780;2024-02-28T03:58:05;6.20;99.90
6018;DHT22;3037;51.068;13.780;2024-02-28T04:00:34;6.30;99.90
6018;DHT22;3037;51.068;13.780;2024-02-28T04:03:00;6.40;99.90
6018;DHT22;3037;51.068;13.780;2024-02-28T04:05:25;6.40;99.90
6018;DHT22;3037;51.068;13.780;2024-02-28T04:07:51;6.40;99.90
6018;DHT22;3037;51.068;13.780;2024-02-28T04:10:16;6.30;99.90
6018;DHT22;3037;51.068;13.780;2024-02-28T04:12:43;6.30;99.90
6018;DHT22;3037;51.068;13.780;2024-02-28T04:15:11;6.50;99.90
6018;DHT22;3037;51.068;13.780;2024-02-28T04:17:37;6.20;99.90
6018;DHT22;3037;51.068;13.780;2024-02-28T04:20:03;6.00;99.90
6018;DHT22;3037;51.068;13.780;2024-02-28T04:22:30;6.00;99.90
6018;DHT22;3037;51.068;13.780;2024-02-28T04:24:57;6.00;99.90
6018;DHT22;3037;51.068;13.780;2024-02-28T04:27:22;6.20;99.90
6018;DHT22;3037;51.068;13.780;2024-02-28T04:29:48;6.20;99.90
6018;DHT22;3037;51.068;13.780;2024-02-28T04:32:13;6.10;99.90
6018;DHT22;3037;51.068;13.780;2024-02-28T04:34:39;6.30;99.90
6018;DHT22;3037;51.068;13.780;2024-02-28T04:37:04;6.20;99.90
6018;DHT22;3037;51.068;13.780;2024-02-28T04:39:30;6.00;99.90
6018;DHT22;3037;51.068;13.780;2024-02-28T04:41:55;6.00;99.90
6018;DHT22;3037;51.068;13.780;2024-02-28T04:44:21;6.20;99.90
6018;DHT22;3037;51.068;13.780;2024-02-28T04:46:46;6.00;99.90
6018;DHT22;3037;51.068;13.780;2024-02-28T04:49:12;6.10;99.90
6018;DHT22;3037;51.068;13.780;2024-02-28T04:51:38;6.00;99.90
6018;DHT22;3037;51.068;13.780;2024-02-28T04:54:03;5.90;99.90
6018;DHT22;3037;51.068;13.780;2024-02-28T04:56:29;6.00;99.90
6018;DHT22;3037;51.068;13.780;2024-02-28T04:58:54;5.90;99.90
6018;DHT22;3037;51.068;13.780;2024-02-28T05:01:20;6.10;99.90
6018;DHT22;3037;51.068;13.780;2024-02-28T05:03:45;6.20;99.90
6018;DHT22;3037;51.068;13.780;2024-02-28T05:06:11;6.00;99.90
6018;DHT22;3037;51.068;13.780;2024-02-28T05:08:37;6.10;99.90
6018;DHT22;3037;51.068;13.780;2024-02-28T05:11:03;6.00;99.90
6018;DHT22;3037;51.068;13.780;2024-02-28T05:13:29;6.00;99.90
6018;DHT22;3037;51.068;13.780;2024-02-28T05:15:54;6.00;99.90
6018;DHT22;3037;51.068;13.780;2024-02-28T05:18:20;6.10;99.90
6018;DHT22;3037;51.068;13.780;2024-02-28T05:20:45;6.10;99.90
6018;DHT22;3037;51.068;13.780;2024-02-28T05:23:11;6.00;99.90
6018;DHT22;3037;51.068;13.780;2024-02-28T05:25:38;5.70;99.90
6018;DHT22;3037;51.068;13.780;2024-02-28T05:28:03;5.90;99.90
6018;DHT22;3037;51.068;13.780;2024-02-28T05:30:29;5.90;99.90
6018;DHT22;3037;51.068;13.780;2024-02-28T05:32:54;6.00;99.90
6018;DHT22;3037;51.068;13.780;2024-02-28T05:35:20;5.90;99.90
6018;DHT22;3037;51.068;13.780;2024-02-28T05:37:45;5.80;99.90
6018;DHT22;3037;51.068;13.780;2024-02-28T05:40:14;5.90;99.90
6018;DHT22;3037;51.068;13.780;2024-02-28T05:42:40;5.80;99.90
6018;DHT22;3037;51.068;13.780;2024-02-28T05:45:06;5.80;99.90
6018;DHT22;3037;51.068;13.780;2024-02-28T05:47:32;5.80;99.90
6018;DHT22;3037;51.068;13.780;2024-02-28T05:49:57;5.80;99.90
6018;DHT22;3037;51.068;13.780;2024-02-28T05:52:24;5.80;99.90
6018;DHT22;3037;51.068;13.780;2024-02-28T05:54:50;5.80;99.90
6018;DHT22;3037;51.068;13.780;2024-02-28T05:57:16;5.80;99.90
6018;DHT22;3037;51.068;13.780;2024-02-28T05:59:42;5.90;99.90
6018;DHT22;3037;51.068;13.780;2024-02-28T06:02:08;6.00;99.90
6018;DHT22;3037;51.068;13.780;2024-02-28T06:04:33;6.00;99.90
6018;DHT22;3037;51.068;13.780;2024-02-28T06:06:59;6.10;99.90
6018;DHT22;3037;51.068;13.780;2024-02-28T06:09:25;6.30;99.90
6018;DHT22;3037;51.068;13.780;2024-02-28T06:11:52;6.40;99.90
6018;DHT22;3037;51.068;13.780;2024-02-28T06:14:18;6.50;99.90
6018;DHT22;3037;51.068;13.780;2024-02-28T06:16:46;6.40;99.90
6018;DHT22;3037;51.068;13.780;2024-02-28T06:19:12;7.10;99.90
6018;DHT22;3037;51.068;13.780;2024-02-28T06:21:37;7.10;99.90
6018;DHT22;3037;51.068;13.780;2024-02-28T06:24:03;7.00;99.90
6018;DHT22;3037;51.068;13.780;2024-02-28T06:26:30;6.40;99.90
6018;DHT22;3037;51.068;13.780;2024-02-28T06:28:57;6.30;99.90
6018;DHT22;3037;51.068;13.780;2024-02-28T06:31:27;6.10;99.90
6018;DHT22;3037;51.068;13.780;2024-02-28T06:33:55;6.10;99.90
6018;DHT22;3037;51.068;13.780;2024-02-28T06:36:20;6.20;99.90
6018;DHT22;3037;51.068;13.780;2024-02-28T06:38:46;6.00;99.90
6018;DHT22;3037;51.068;13.780;2024-02-28T06:41:11;5.90;99.90
6018;DHT22;3037;51.068;13.780;2024-02-28T06:43:37;5.90;99.90
6018;DHT22;3037;51.068;13.780;2024-02-28T06:46:03;5.90;99.90
6018;DHT22;3037;51.068;13.780;2024-02-28T06:48:29;5.90;99.90
6018;DHT22;3037;51.068;13.780;2024-02-28T06:50:55;6.00;99.90
6018;DHT22;3037;51.068;13.780;2024-02-28T06:53:21;6.00;99.90
6018;DHT22;3037;51.068;13.780;2024-02-28T06:55:46;5.90;99.90
6018;DHT22;3037;51.068;13.780;2024-02-28T06:58:14;6.00;99.90
6018;DHT22;3037;51.068;13.780;2024-02-28T07:00:40;6.10;99.90
6018;DHT22;3037;51.068;13.780;2024-02-28T07:03:05;5.90;99.90
6018;DHT22;3037;51.068;13.780;2024-02-28T07:05:31;6.10;99.90
6018;DHT22;3037;51.068;13.780;2024-02-28T07:07:56;5.90;99.90
6018;DHT22;3037;51.068;13.780;2024-02-28T07:10:22;5.70;99.90
6018;DHT22;3037;51.068;13.780;2024-02-28T07:12:48;5.70;99.90
6018;DHT22;3037;51.068;13.780;2024-02-28T07:15:14;6.00;99.90
6018;DHT22;3037;51.068;13.780;2024-02-28T07:17:39;6.00;99.90
6018;DHT22;3037;51.068;13.780;2024-02-28T07:20:05;6.00;99.90
6018;DHT22;3037;51.068;13.780;2024-02-28T07:22:32;5.90;99.90
6018;DHT22;3037;51.068;13.780;2024-02-28T07:24:57;5.70;99.90
6018;DHT22;3037;51.068;13.780;2024-02-28T07:27:23;5.90;99.90
6018;DHT22;3037;51.068;13.780;2024-02-28T07:29:51;5.90;99.90
6018;DHT22;3037;51.068;13.780;2024-02-28T07:32:17;6.10;99.90
6018;DHT22;3037;51.068;13.780;2024-02-28T07:34:42;6.00;99.90
6018;DHT22;3037;51.068;13.780;2024-02-28T07:37:08;6.10;99.90
6018;DHT22;3037;51.068;13.780;2024-02-28T07:39:33;6.20;99.90
6018;DHT22;3037;51.068;13.780;2024-02-28T07:41:59;6.30;99.90
6018;DHT22;3037;51.068;13.780;2024-02-28T07:44:25;6.30;99.90
6018;DHT22;3037;51.068;13.780;2024-02-28T07:46:51;6.20;99.90
6018;DHT22;3037;51.068;13.780;2024-02-28T07:49:16;6.10;99.90
6018;DHT22;3037;51.068;13.780;2024-02-28T07:51:42;6.10;99.90
6018;DHT22;3037;51.068;13.780;2024-02-28T07:54:08;6.00;99.90
6018;DHT22;3037;51.068;13.780;2024-02-28T07:56:33;6.30;99.90
6018;DHT22;3037;51.068;13.780;2024-02-28T07:58:59;6.50;99.90
6018;DHT22;3037;51.068;13.780;2024-02-28T08:01:24;6.30;99.90
6018;DHT22;3037;51.068;13.780;2024-02-28T08:03:50;6.30;99.90
6018;DHT22;3037;51.068;13.780;2024-02-28T08:06:16;6.40;99.90
6018;DHT22;3037;51.068;13.780;2024-02-28T08:08:44;6.70;99.90
6018;DHT22;3037;51.068;13.780;2024-02-28T08:11:11;7.20;99.90
6018;DHT22;3037;51.068;13.780;2024-02-28T08:13:36;7.00;99.90
6018;DHT22;3037;51.068;13.780;2024-02-28T08:16:02;6.40;99.90
6018;DHT22;3037;51.068;13.780;2024-02-28T08:18:27;6.30;99.90
6018;DHT22;3037;51.068;13.780;2024-02-28T08:20:54;6.10;99.90
6018;DHT22;3037;51.068;13.780;2024-02-28T08:23:25;6.20;99.90
6018;DHT22;3037;51.068;13.780;2024-02-28T08:25:51;6.40;99.90
6018;DHT22;3037;51.068;13.780;2024-02-28T08:28:17;6.30;99.90
6018;DHT22;3037;51.068;13.780;2024-02-28T08:30:42;6.30;99.90
6018;DHT22;3037;51.068;13.780;2024-02-28T08:33:08;6.30;99.90
6018;DHT22;3037;51.068;13.780;2024-02-28T08:35:36;6.50;99.90
6018;DHT22;3037;51.068;13.780;2024-02-28T08:38:01;6.60;99.90
6018;DHT22;3037;51.068;13.780;2024-02-28T08:40:29;6.40;99.90
6018;DHT22;3037;51.068;13.780;2024-02-28T08:42:55;6.50;99.90
6018;DHT22;3037;51.068;13.780;2024-02-28T08:45:22;6.60;99.90
6018;DHT22;3037;51.068;13.780;2024-02-28T08:47:48;6.30;99.90
6018;DHT22;3037;51.068;13.780;2024-02-28T08:50:13;6.30;99.90
6018;DHT22;3037;51.068;13.780;2024-02-28T08:52:39;6.20;99.90
6018;DHT22;3037;51.068;13.780;2024-02-28T08:55:05;6.20;99.90
6018;DHT22;3037;51.068;13.780;2024-02-28T08:57:30;6.30;99.90
6018;DHT22;3037;51.068;13.780;2024-02-28T08:59:56;6.30;99.90
6018;DHT22;3037;51.068;13.780;2024-02-28T09:02:22;6.30;99.90
6018;DHT22;3037;51.068;13.780;2024-02-28T09:04:47;6.40;99.90
6018;DHT22;3037;51.068;13.780;2024-02-28T09:07:17;6.50;99.90
6018;DHT22;3037;51.068;13.780;2024-02-28T09:09:46;6.40;99.90
6018;DHT22;3037;51.068;13.780;2024-02-28T09:12:12;6.50;99.90
6018;DHT22;3037;51.068;13.780;2024-02-28T09:14:38;6.30;99.90
6018;DHT22;3037;51.068;13.780;2024-02-28T09:17:04;6.30;99.90
6018;DHT22;3037;51.068;13.780;2024-02-28T09:19:32;6.70;99.90
6018;DHT22;3037;51.068;13.780;2024-02-28T09:21:58;6.50;99.90
6018;DHT22;3037;51.068;13.780;2024-02-28T09:24:24;6.50;99.90
6018;DHT22;3037;51.068;13.780;2024-02-28T09:26:50;6.80;99.90
6018;DHT22;3037;51.068;13.780;2024-02-28T09:29:15;6.60;99.90
6018;DHT22;3037;51.068;13.780;2024-02-28T09:31:41;6.70;99.90
6018;DHT22;3037;51.068;13.780;2024-02-28T09:34:06;6.90;99.90
6018;DHT22;3037;51.068;13.780;2024-02-28T09:36:44;6.90;99.90
6018;DHT22;3037;51.068;13.780;2024-02-28T09:39:12;6.90;99.90
6018;DHT22;3037;51.068;13.780;2024-02-28T09:41:38;6.70;99.90
6018;DHT22;3037;51.068;13.780;2024-02-28T09:44:06;6.80;99.90
6018;DHT22;3037;51.068;13.780;2024-02-28T09:46:33;6.90;99.90
6018;DHT22;3037;51.068;13.780;2024-02-28T09:49:04;6.90;99.90
6018;DHT22;3037;51.068;13.780;2024-02-28T09:51:34;6.80;99.90
6018;DHT22;3037;51.068;13.780;2024-02-28T09:54:03;6.80;99.90
6018;DHT22;3037;51.068;13.780;2024-02-28T09:56:30;6.70;99.90
6018;DHT22;3037;51.068;13.780;2024-02-28T09:58:56;6.60;99.90
6018;DHT22;3037;51.068;13.780;2024-02-28T10:01:22;6.40;99.90
6018;DHT22;3037;51.068;13.780;2024-02-28T10:03:51;6.70;99.90
6018;DHT22;3037;51.068;13.780;2024-02-28T10:06:18;6.70;99.90
6018;DHT22;3037;51.068;13.780;2024-02-28T10:08:44;6.70;99.90
6018;DHT22;3037;51.068;13.780;2024-02-28T10:11:20;6.70;99.90
6018;DHT22;3037;51.068;13.780;2024-02-28T10:13:47;6.90;99.90
6018;DHT22;3037;51.068;13.780;2024-02-28T10:16:13;6.90;99.90
6018;DHT22;3037;51.068;13.780;2024-02-28T10:18:42;7.00;99.90
6018;DHT22;3037;51.068;13.780;2024-02-28T10:21:08;6.60;99.90
6018;DHT22;3037;51.068;13.780;2024-02-28T10:23:34;6.80;99.90
6018;DHT22;3037;51.068;13.780;2024-02-28T10:26:01;6.60;99.90
6018;DHT22;3037;51.068;13.780;2024-02-28T10:28:26;6.70;99.90
6018;DHT22;3037;51.068;13.780;2024-02-28T10:30:53;6.80;99.90
6018;DHT22;3037;51.068;13.780;2024-02-28T10:33:19;6.90;99.90
6018;DHT22;3037;51.068;13.780;2024-02-28T10:35:45;6.90;99.90
6018;DHT22;3037;51.068;13.780;2024-02-28T10:38:11;6.70;99.90
6018;DHT22;3037;51.068;13.780;2024-02-28T10:40:39;6.80;99.90
6018;DHT22;3037;51.068;13.780;2024-02-28T10:43:10;6.80;99.90
6018;DHT22;3037;51.068;13.780;2024-02-28T10:45:37;6.90;99.90
6018;DHT22;3037;51.068;13.780;2024-02-28T10:48:05;6.70;99.90
6018;DHT22;3037;51.068;13.780;2024-02-28T10:50:32;6.60;99.90
6018;DHT22;3037;51.068;13.780;2024-02-28T10:53:03;7.10;99.90
6018;DHT22;3037;51.068;13.780;2024-02-28T10:55:34;6.70;99.90
6018;DHT22;3037;51.068;13.780;2024-02-28T10:58:07;7.00;99.90
6018;DHT22;3037;51.068;13.780;2024-02-28T11:00:34;7.10;99.90
6018;DHT22;3037;51.068;13.780;2024-02-28T11:03:01;7.00;99.90
6018;DHT22;3037;51.068;13.780;2024-02-28T11:05:38;7.20;99.90
6018;DHT22;3037;51.068;13.780;2024-02-28T11:08:38;6.80;99.90
6018;DHT22;3037;51.068;13.780;2024-02-28T11:11:04;6.80;99.90
6018;DHT22;3037;51.068;13.780;2024-02-28T11:13:30;6.40;99.90
6018;DHT22;3037;51.068;13.780;2024-02-28T11:16:07;6.20;99.90
6018;DHT22;3037;51.068;13.780;2024-02-28T11:18:33;6.50;99.90
6018;DHT22;3037;51.068;13.780;2024-02-28T11:20:58;6.70;99.90
6018;DHT22;3037;51.068;13.780;2024-02-28T11:23:24;6.70;99.90
6018;DHT22;3037;51.068;13.780;2024-02-28T11:25:49;6.50;99.90
6018;DHT22;3037;51.068;13.780;2024-02-28T11:28:16;6.90;99.90
6018;DHT22;3037;51.068;13.780;2024-02-28T11:30:41;7.00;99.90
6018;DHT22;3037;51.068;13.780;2024-02-28T11:33:07;7.20;99.90
6018;DHT22;3037;51.068;13.780;2024-02-28T11:35:34;7.10;99.90
6018;DHT22;3037;51.068;13.780;2024-02-28T11:38:00;7.20;99.90
6018;DHT22;3037;51.068;13.780;2024-02-28T11:40:26;7.00;99.90
6018;DHT22;3037;51.068;13.780;2024-02-28T11:42:52;6.90;99.90
6018;DHT22;3037;51.068;13.780;2024-02-28T11:45:18;7.00;99.90
6018;DHT22;3037;51.068;13.780;2024-02-28T11:47:45;7.60;99.90
6018;DHT22;3037;51.068;13.780;2024-02-28T11:50:11;7.90;99.90
6018;DHT22;3037;51.068;13.780;2024-02-28T11:52:36;7.80;96.30
6018;DHT22;3037;51.068;13.780;2024-02-28T11:55:03;7.80;95.10
6018;DHT22;3037;51.068;13.780;2024-02-28T11:57:28;7.60;95.00
6018;DHT22;3037;51.068;13.780;2024-02-28T11:59:56;7.50;98.20
6018;DHT22;3037;51.068;13.780;2024-02-28T12:02:23;7.70;93.00
6018;DHT22;3037;51.068;13.780;2024-02-28T12:04:52;7.70;90.10
6018;DHT22;3037;51.068;13.780;2024-02-28T12:07:19;7.80;89.50
6018;DHT22;3037;51.068;13.780;2024-02-28T12:09:46;7.20;91.10
6018;DHT22;3037;51.068;13.780;2024-02-28T12:12:13;7.10;95.60
6018;DHT22;3037;51.068;13.780;2024-02-28T12:14:40;7.20;99.70
6018;DHT22;3037;51.068;13.780;2024-02-28T12:17:05;7.30;99.90
6018;DHT22;3037;51.068;13.780;2024-02-28T12:19:31;7.60;91.80
6018;DHT22;3037;51.068;13.780;2024-02-28T12:21:56;7.70;94.10
6018;DHT22;3037;51.068;13.780;2024-02-28T12:24:22;7.50;92.80
6018;DHT22;3037;51.068;13.780;2024-02-28T12:26:48;7.60;95.00
6018;DHT22;3037;51.068;13.780;2024-02-28T12:29:14;7.60;94.20
6018;DHT22;3037;51.068;13.780;2024-02-28T12:31:39;7.80;90.90
6018;DHT22;3037;51.068;13.780;2024-02-28T12:34:05;7.80;87.70
6018;DHT22;3037;51.068;13.780;2024-02-28T12:36:30;7.90;84.70
6018;DHT22;3037;51.068;13.780;2024-02-28T12:38:58;7.80;88.50
6018;DHT22;3037;51.068;13.780;2024-02-28T12:41:25;8.20;83.30
6018;DHT22;3037;51.068;13.780;2024-02-28T12:43:51;8.00;83.40
6018;DHT22;3037;51.068;13.780;2024-02-28T12:46:16;8.20;78.40
6018;DHT22;3037;51.068;13.780;2024-02-28T12:48:42;8.00;81.30
6018;DHT22;3037;51.068;13.780;2024-02-28T12:51:20;7.70;80.70
6018;DHT22;3037;51.068;13.780;2024-02-28T12:53:46;7.70;85.30
6018;DHT22;3037;51.068;13.780;2024-02-28T12:56:12;8.00;82.80
6018;DHT22;3037;51.068;13.780;2024-02-28T12:58:38;7.60;79.00
6018;DHT22;3037;51.068;13.780;2024-02-28T13:01:03;7.70;81.00
6018;DHT22;3037;51.068;13.780;2024-02-28T13:03:30;7.60;82.60
6018;DHT22;3037;51.068;13.780;2024-02-28T13:05:55;7.60;84.30
6018;DHT22;3037;51.068;13.780;2024-02-28T13:08:21;7.50;81.30
6018;DHT22;3037;51.068;13.780;2024-02-28T13:10:46;7.60;81.90
6018;DHT22;3037;51.068;13.780;2024-02-28T13:13:12;8.00;80.30
6018;DHT22;3037;51.068;13.780;2024-02-28T13:15:39;7.80;79.60
6018;DHT22;3037;51.068;13.780;2024-02-28T13:18:05;7.60;74.00
6018;DHT22;3037;51.068;13.780;2024-02-28T13:20:34;7.90;77.10
6018;DHT22;3037;51.068;13.780;2024-02-28T13:23:00;8.20;69.10
6018;DHT22;3037;51.068;13.780;2024-02-28T13:25:26;8.10;67.20
6018;DHT22;3037;51.068;13.780;2024-02-28T13:27:52;8.20;69.30
6018;DHT22;3037;51.068;13.780;2024-02-28T13:30:17;8.20;67.80
6018;DHT22;3037;51.068;13.780;2024-02-28T13:32:43;8.10;63.20
6018;DHT22;3037;51.068;13.780;2024-02-28T13:35:09;7.60;70.10
6018;DHT22;3037;51.068;13.780;2024-02-28T13:37:35;8.30;63.10
6018;DHT22;3037;51.068;13.780;2024-02-28T13:40:02;8.20;61.30
6018;DHT22;3037;51.068;13.780;2024-02-28T13:42:30;8.10;58.50
6018;DHT22;3037;51.068;13.780;2024-02-28T13:44:55;8.30;72.20
6018;DHT22;3037;51.068;13.780;2024-02-28T13:47:20;8.60;52.00
6018;DHT22;3037;51.068;13.780;2024-02-28T13:49:46;8.30;51.20
6018;DHT22;3037;51.068;13.780;2024-02-28T13:52:12;8.40;53.30
6018;DHT22;3037;51.068;13.780;2024-02-28T13:54:38;8.50;43.20
6018;DHT22;3037;51.068;13.780;2024-02-28T13:57:03;8.20;49.10
6018;DHT22;3037;51.068;13.780;2024-02-28T13:59:30;8.20;44.70
6018;DHT22;3037;51.068;13.780;2024-02-28T14:01:55;8.20;46.70
6018;DHT22;3037;51.068;13.780;2024-02-28T14:04:21;8.40;40.80
6018;DHT22;3037;51.068;13.780;2024-02-28T14:06:46;8.60;43.20
6018;DHT22;3037;51.068;13.780;2024-02-28T14:09:12;8.70;44.30
6018;DHT22;3037;51.068;13.780;2024-02-28T14:11:37;9.10;39.30
6018;DHT22;3037;51.068;13.780;2024-02-28T14:14:04;9.30;33.50
6018;DHT22;3037;51.068;13.780;2024-02-28T14:16:30;9.40;32.20
6018;DHT22;3037;51.068;13.780;2024-02-28T14:18:57;9.10;25.10
6018;DHT22;3037;51.068;13.780;2024-02-28T14:21:23;9.60;26.60
6018;DHT22;3037;51.068;13.780;2024-02-28T14:23:50;9.30;24.60
6018;DHT22;3037;51.068;13.780;2024-02-28T14:26:15;9.60;26.60
6018;DHT22;3037;51.068;13.780;2024-02-28T14:28:41;9.80;19.90
6018;DHT22;3037;51.068;13.780;2024-02-28T14:31:07;9.60;23.30
6018;DHT22;3037;51.068;13.780;2024-02-28T14:33:32;9.40;21.20
6018;DHT22;3037;51.068;13.780;2024-02-28T14:35:58;9.00;26.20
6018;DHT22;3037;51.068;13.780;2024-02-28T14:38:25;8.80;21.40
6018;DHT22;3037;51.068;13.780;2024-02-28T14:40:51;8.70;26.10
6018;DHT22;3037;51.068;13.780;2024-02-28T14:43:16;9.10;23.60
6018;DHT22;3037;51.068;13.780;2024-02-28T14:45:42;8.90;24.50
6018;DHT22;3037;51.068;13.780;2024-02-28T14:48:08;8.90;24.50
6018;DHT22;3037;51.068;13.780;2024-02-28T14:50:33;8.60;20.20
6018;DHT22;3037;51.068;13.780;2024-02-28T14:52:59;8.30;25.00
6018;DHT22;3037;51.068;13.780;2024-02-28T14:55:24;8.50;22.40
6018;DHT22;3037;51.068;13.780;2024-02-28T14:57:50;8.00;22.80
6018;DHT22;3037;51.068;13.780;2024-02-28T15:00:16;8.10;22.40
6018;DHT22;3037;51.068;13.780;2024-02-28T15:02:42;8.20;24.10
6018;DHT22;3037;51.068;13.780;2024-02-28T15:05:09;8.20;24.50
6018;DHT22;3037;51.068;13.780;2024-02-28T15:07:35;8.10;24.20
6018;DHT22;3037;51.068;13.780;2024-02-28T15:10:01;7.90;25.10
6018;DHT22;3037;51.068;13.780;2024-02-28T15:12:30;7.80;26.30
6018;DHT22;3037;51.068;13.780;2024-02-28T15:14:56;7.70;27.20
6018;DHT22;3037;51.068;13.780;2024-02-28T15:17:22;7.60;29.90
6018;DHT22;3037;51.068;13.780;2024-02-28T15:19:47;7.40;33.20
6018;DHT22;3037;51.068;13.780;2024-02-28T15:22:13;7.50;32.30
6018;DHT22;3037;51.068;13.780;2024-02-28T15:24:39;7.30;35.20
6018;DHT22;3037;51.068;13.780;2024-02-28T15:27:05;7.20;34.70
6018;DHT22;3037;51.068;13.780;2024-02-28T15:29:31;7.30;33.80
6018;DHT22;3037;51.068;13.780;2024-02-28T15:31:57;7.30;36.30
6018;DHT22;3037;51.068;13.780;2024-02-28T15:34:23;7.30;37.40
6018;DHT22;3037;51.068;13.780;2024-02-28T15:36:48;7.20;36.50
6018;DHT22;3037;51.068;13.780;2024-02-28T15:39:15;7.00;37.70
6018;DHT22;3037;51.068;13.780;2024-02-28T15:41:41;6.90;39.20
6018;DHT22;3037;51.068;13.780;2024-02-28T15:44:07;6.70;41.40
6018;DHT22;3037;51.068;13.780;2024-02-28T15:46:33;6.80;57.80
6018;DHT22;3037;51.068;13.780;2024-02-28T15:48:58;6.80;59.10
6018;DHT22;3037;51.068;13.780;2024-02-28T15:51:24;6.70;54.70
6018;DHT22;3037;51.068;13.780;2024-02-28T15:53:49;6.30;58.60
6018;DHT22;3037;51.068;13.780;2024-02-28T15:56:15;6.20;58.80